Have a Safe July 4th! 

Flight Track Log - Related Links

Times and Time Zones

All times are in EST time to prevent confusion due to time zone crossing. See the CCA4488 flight status page for this flight to view local times or setup timezone preferences in your user account.

Time Position Orientation Groundspeed Altitude Reporting Facility
EST Latitude Longitude Course Direction KTS MPH feet Rate Location/Type
Thu 07:05:43 PM 32.5140 104.2450 170° South 432 497 24,600  Level FlightAware ADS-B
Thu 07:06:13 PM 32.4560 104.2560 171° South 427 491 24,600  Level FlightAware ADS-B
Thu 07:06:53 PM 32.3790 104.2610 177° South 421 484 24,600  Level FlightAware ADS-B
Thu 07:07:35 PM 32.2970 104.2640 178° South 419 482 24,600  Level FlightAware ADS-B
Thu 07:08:31 PM 32.1870 104.2690 178° South 422 486 24,600  Level FlightAware ADS-B
Thu 07:09:29 PM 32.0730 104.2750 177° South 415 478 24,600 -130 Level FlightAware ADS-B
Thu 07:10:03 PM 32.0100 104.2780 178° South 408 470 24,400 -837 Descending FlightAware ADS-B
Thu 07:10:55 PM 31.9150 104.2830 177° South 380 437 23,400 -1,211 Descending FlightAware ADS-B
Thu 07:11:57 PM 31.8050 104.2880 178° South 387 445 22,100 -1,158 Descending FlightAware ADS-B
Thu 07:12:49 PM 31.7150 104.2930 177° South 379 436 21,200 -1,011 Descending FlightAware ADS-B
Thu 07:13:32 PM 31.6390 104.2970 177° South 376 433 20,500 -1,000 Descending FlightAware ADS-B
Thu 07:14:01 PM 31.5870 104.2990 178° South 374 430 20,000 -978 Descending FlightAware ADS-B
Thu 07:15:04 PM 31.4800 104.3040 178° South 373 429 19,000 -750 Descending FlightAware ADS-B
Thu 07:15:45 PM 31.4070 104.3070 178° South 404 465 18,700 -261 Descending FlightAware ADS-B
Thu 07:16:13 PM 31.3520 104.3100 177° South 406 467 18,700  Level FlightAware ADS-B
Thu 07:17:13 PM 31.2380 104.3160 177° South 408 470 18,700  Level FlightAware ADS-B
Thu 07:17:41 PM 31.1870 104.3070 189° South 395 455 18,700  Level FlightAware ADS-B
Thu 07:18:05 PM 31.1500 104.2810 211° Southwest 386 444 18,700  Level FlightAware ADS-B
Thu 07:19:01 PM 31.0800 104.1980 225° Southwest 387 445 18,700 -404 Level FlightAware ADS-B
Thu 07:19:49 PM 31.0200 104.1270 225° Southwest 379 436 18,000 -1,740 Descending FlightAware ADS-B
Thu 07:20:41 PM 30.9560 104.0520 225° Southwest 377 434 15,800 -2,192 Descending FlightAware ADS-B
Thu 07:21:33 PM 30.8930 103.9760 226° Southwest 373 429 14,200 -1,800 Descending FlightAware ADS-B
Thu 07:22:21 PM 30.8360 103.9090 225° Southwest 359 413 12,800 -1,516 Descending FlightAware ADS-B
Thu 07:23:08 PM 30.7830 103.8470 225° Southwest 331 381 11,800 -980 Descending FlightAware ADS-B
Thu 07:23:59 PM 30.7320 103.7860 226° Southwest 291 335 11,200 -990 Descending FlightAware ADS-B
Thu 07:24:45 PM 30.6900 103.7370 225° Southwest 273 314 10,200 -1,714 Descending FlightAware ADS-B
Thu 07:25:09 PM 30.6680 103.7110 225° Southwest 286 329 9,200 -2,160 Descending FlightAware ADS-B
Thu 07:25:35 PM 30.6360 103.6960 202° Southwest 291 335 8,400 -1,800 Descending FlightAware ADS-B
Thu 07:25:59 PM 30.6050 103.7070 163° South 286 329 7,700 -1,269 Descending FlightAware ADS-B
Thu 07:26:27 PM 30.5730 103.7220 158° South 273 314 7,300 -727 Descending FlightAware ADS-B
Thu 07:27:05 PM 30.5290 103.7430 158° South 249 287 6,900 -636 Descending FlightAware ADS-B
Thu 07:27:33 PM 30.5010 103.7560 158° South 232 267 6,600 -655 Descending FlightAware ADS-B
Thu 07:28:00 PM 30.4750 103.7690 157° South 219 252 6,300 -923 Descending FlightAware ADS-B
Thu 07:28:25 PM 30.4520 103.7800 158° South 215 247 5,800 -1,224 Descending FlightAware ADS-B
Thu 07:28:49 PM 30.4300 103.7910 157° South 218 251 5,300 -923 Descending FlightAware ADS-B
Thu 07:29:17 PM 30.4040 103.8040 157° South 203 234 5,000 -429 Descending FlightAware ADS-B
Thu 07:29:45 PM 30.3820 103.8150 157° South 196 226 4,900 -115 Descending FlightAware ADS-B
Thu 07:30:09 PM 30.3660 103.8330 136° Southeast 180 207 4,900  Level FlightAware ADS-B
Thu 07:30:22 PM 30.3630 103.8430 109° East 168 193 4,900 -143 Level FlightAware ADS-B
Thu 07:30:51 PM 30.3700 103.8660 71° East 163 188 4,800 -556 Descending FlightAware ADS-B
Thu 07:31:16 PM 30.3860 103.8750 26° Northeast 167 192 4,400 -1,034 Descending FlightAware ADS-B
Thu 07:31:49 PM 30.4110 103.8860 21° North 165 190 3,800 -857 Descending FlightAware ADS-B
Thu 07:32:19 PM 30.4320 103.8960 22° Northeast 153 176 3,500 -677 Descending FlightAware ADS-B
Thu 07:32:51 PM 30.4510 103.9050 22° Northeast 136 157 3,100 -724 Descending FlightAware ADS-B
Thu 07:33:17 PM 30.4660 103.9120 22° Northeast 132 152 2,800 -774 Descending FlightAware ADS-B
Thu 07:33:53 PM 30.4860 103.9210 21° North 132 152 2,300 -737 Descending FlightAware ADS-B
Thu 07:34:14 PM 30.4980 103.9270 23° Northeast 131 151 2,100 -625 Descending FlightAware ADS-B
Thu 07:34:41 PM 30.5130 103.9340 22° Northeast 133 153 1,800 -769 Descending FlightAware ADS-B
Thu 07:34:53 PM 30.5200 103.9370 20° North 133 153 1,600 -324 Descending FlightAware ADS-B
Thu 07:35:18 PM 30.5320 103.9420 20° North 133 153 1,600  Level FlightAware ADS-B

Login

Don't have an account? Register now (free) for customized features, flight alerts, and more!